createdAt,value
2022-12-19T00:02:57.248Z,-6.23
2022-12-19T00:07:01.815Z,-6.21
2022-12-19T00:11:04.829Z,-6.23
2022-12-19T00:15:09.489Z,-6.20
2022-12-19T00:19:12.666Z,-6.22
2022-12-19T00:23:16.721Z,-6.18
2022-12-19T00:27:19.376Z,-6.16
2022-12-19T00:31:23.902Z,-6.17
2022-12-19T00:35:26.575Z,-6.12
2022-12-19T00:39:30.568Z,-6.08
2022-12-19T00:43:33.191Z,-6.10
2022-12-19T00:47:36.361Z,-6.10
2022-12-19T00:51:39.068Z,-6.08
2022-12-19T00:55:43.061Z,-6.09
2022-12-19T00:59:45.668Z,-6.09
2022-12-19T01:04:26.001Z,-6.11
2022-12-19T01:08:11.480Z,-6.10
2022-12-19T01:12:32.780Z,-6.11
2022-12-19T01:16:35.509Z,-6.12
2022-12-19T01:20:39.873Z,-6.10
2022-12-19T01:24:42.520Z,-6.14
2022-12-19T01:28:46.656Z,-6.13
2022-12-19T01:32:49.321Z,-6.14
2022-12-19T01:36:51.999Z,-6.17
2022-12-19T01:40:56.792Z,-6.13
2022-12-19T01:45:27.771Z,-6.12
2022-12-19T01:49:37.672Z,-6.12
2022-12-19T01:53:48.520Z,-6.16
2022-12-19T01:57:52.502Z,-6.19
2022-12-19T02:02:01.280Z,-6.23
2022-12-19T02:06:06.514Z,-6.23
2022-12-19T02:10:09.770Z,-6.22
2022-12-19T02:14:12.472Z,-6.27
2022-12-19T02:18:22.954Z,-6.22
2022-12-19T02:22:31.617Z,-6.25
2022-12-19T02:26:58.211Z,-6.23
2022-12-19T02:31:15.478Z,-6.20
2022-12-19T02:35:28.871Z,-6.17
2022-12-19T02:39:35.508Z,-6.15
2022-12-19T02:43:42.627Z,-6.16
2022-12-19T02:47:47.721Z,-6.12
2022-12-19T02:51:50.402Z,-6.10
2022-12-19T02:56:23.073Z,-6.08
2022-12-19T03:00:28.718Z,-6.05
2022-12-19T03:04:44.641Z,-6.13
2022-12-19T03:08:53.667Z,-6.14
2022-12-19T03:13:02.093Z,-6.06
2022-12-19T03:17:07.329Z,-6.05
2022-12-19T03:21:18.897Z,-6.03
2022-12-19T03:25:23.388Z,-6.04
2022-12-19T03:29:31.187Z,-6.05
2022-12-19T03:33:34.989Z,-6.02
2022-12-19T03:37:42.859Z,-6.02
2022-12-19T03:42:03.867Z,-6.07
2022-12-19T03:46:14.074Z,-6.08
2022-12-19T03:50:17.131Z,-6.05
2022-12-19T03:54:26.282Z,-6.05
2022-12-19T03:58:33.927Z,-6.01
2022-12-19T04:02:38.765Z,-6.03
2022-12-19T04:06:43.717Z,-6.04
2022-12-19T04:10:52.465Z,-5.99
2022-12-19T04:14:55.196Z,-6.04
2022-12-19T04:19:02.013Z,-6.01
2022-12-19T04:23:10.127Z,-6.01
2022-12-19T04:27:15.344Z,-5.94
2022-12-19T04:31:19.146Z,-6.00
2022-12-19T04:35:21.889Z,-5.98
2022-12-19T04:39:24.620Z,-5.97
2022-12-19T04:43:28.897Z,-5.91
2022-12-19T04:47:31.663Z,-5.92
2022-12-19T04:51:34.339Z,-5.90
2022-12-19T04:55:37.095Z,-5.95
2022-12-19T04:59:41.142Z,-5.96
2022-12-19T05:03:43.853Z,-5.93
2022-12-19T05:07:47.003Z,-5.87
2022-12-19T05:11:49.948Z,-5.87
2022-12-19T05:15:58.440Z,-5.85
2022-12-19T05:20:01.138Z,-5.79
2022-12-19T05:24:03.989Z,-5.78
2022-12-19T05:28:06.678Z,-5.76
2022-12-19T05:32:10.726Z,-5.78
2022-12-19T05:36:15.158Z,-5.77
2022-12-19T05:40:17.905Z,-5.72
2022-12-19T05:44:20.579Z,-5.73
2022-12-19T05:48:24.724Z,-5.59
2022-12-19T05:52:27.504Z,-5.60
2022-12-19T05:56:30.361Z,-5.66
2022-12-19T06:00:33.269Z,-5.73
2022-12-19T06:04:40.381Z,-5.68
2022-12-19T06:08:43.345Z,-5.65
2022-12-19T06:12:46.101Z,-5.65
2022-12-19T06:16:48.849Z,-5.63
2022-12-19T06:21:01.174Z,-5.62
2022-12-19T06:25:03.887Z,-5.56
2022-12-19T06:29:06.606Z,-5.51
2022-12-19T06:33:10.066Z,-5.51
2022-12-19T06:37:14.192Z,-5.54
2022-12-19T06:41:35.198Z,-5.56
2022-12-19T06:45:37.981Z,-5.53
2022-12-19T06:49:40.690Z,-5.50
2022-12-19T06:53:44.715Z,-4.92
2022-12-19T06:57:47.588Z,-4.03
2022-12-19T07:01:58.061Z,-4.70
2022-12-19T07:06:00.952Z,-5.05
2022-12-19T07:10:06.329Z,-5.21
2022-12-19T07:14:09.023Z,-5.24
2022-12-19T07:18:14.009Z,-5.24
2022-12-19T07:22:16.962Z,-5.25
2022-12-19T07:26:21.000Z,-5.23
2022-12-19T07:30:23.716Z,-5.16
2022-12-19T07:34:26.429Z,-5.14
2022-12-19T07:38:29.181Z,-5.09
2022-12-19T07:42:34.090Z,-5.08
2022-12-19T07:46:36.804Z,-4.89
2022-12-19T07:50:39.479Z,-4.79
2022-12-19T07:54:42.165Z,-4.78
2022-12-19T07:58:46.199Z,-4.75
2022-12-19T08:02:49.374Z,-4.69
2022-12-19T08:06:53.183Z,-4.70
2022-12-19T08:10:55.937Z,-4.61
2022-12-19T08:15:00.016Z,-4.52
2022-12-19T08:19:03.196Z,-4.37
2022-12-19T08:23:05.866Z,-4.31
2022-12-19T08:27:08.574Z,-4.24
2022-12-19T08:31:17.186Z,-4.21
2022-12-19T08:35:20.175Z,-4.18
2022-12-19T08:39:22.931Z,-4.19
2022-12-19T08:43:25.638Z,-4.13
2022-12-19T08:47:29.939Z,-4.05
2022-12-19T08:51:32.591Z,-4.00
2022-12-19T08:55:36.730Z,-3.92
2022-12-19T08:59:39.437Z,-3.91
2022-12-19T09:03:47.941Z,-3.91
2022-12-19T09:08:07.918Z,-3.74
2022-12-19T09:12:11.160Z,-3.86
2022-12-19T09:16:16.451Z,-3.85
2022-12-19T09:20:23.669Z,-3.87
2022-12-19T09:24:28.315Z,-3.89
2022-12-19T09:28:31.615Z,-3.87
2022-12-19T09:32:34.335Z,-3.87
2022-12-19T09:36:38.341Z,-3.84
2022-12-19T09:40:57.602Z,-3.86
2022-12-19T09:45:31.585Z,-3.78
2022-12-19T09:49:39.895Z,-3.75
2022-12-19T09:54:00.614Z,-3.74
2022-12-19T09:58:09.079Z,-3.59
2022-12-19T10:02:30.150Z,-3.53
2022-12-19T10:07:18.377Z,-3.39
2022-12-19T10:12:39.793Z,-3.43
2022-12-19T10:15:43.149Z,-3.27
2022-12-19T10:20:00.791Z,-3.21
2022-12-19T10:24:21.826Z,-3.25
2022-12-19T10:28:41.899Z,-3.15
2022-12-19T10:32:57.175Z,-3.07
2022-12-19T10:37:23.232Z,-2.95
2022-12-19T10:41:28.481Z,-2.93
2022-12-19T10:45:41.078Z,-2.89
2022-12-19T10:49:45.148Z,-2.80
2022-12-19T10:53:55.081Z,-2.70
2022-12-19T10:57:59.749Z,-2.70
2022-12-19T11:02:27.774Z,-2.70
2022-12-19T11:06:47.327Z,-2.64
2022-12-19T11:12:12.961Z,-2.64
2022-12-19T11:20:10.167Z,-2.53
2022-12-19T11:29:27.285Z,-2.44
2022-12-19T11:29:42.128Z,-2.40
2022-12-19T11:30:48.174Z,-2.34
2022-12-19T11:33:09.922Z,-2.43
2022-12-19T11:37:21.476Z,-2.38
2022-12-19T11:41:33.059Z,-2.32
2022-12-19T11:45:42.023Z,-2.17
2022-12-19T11:49:49.880Z,-2.10
2022-12-19T11:54:04.031Z,-1.95
2022-12-19T11:58:06.667Z,-1.79
2022-12-19T12:02:43.767Z,-1.79
2022-12-19T12:06:51.200Z,-1.89
2022-12-19T12:17:10.044Z,-1.93
2022-12-19T12:28:47.915Z,-1.90
2022-12-19T12:31:07.301Z,-2.04
2022-12-19T12:31:47.318Z,-2.09
2022-12-19T12:32:06.163Z,-2.14
2022-12-19T12:35:22.332Z,-2.12
2022-12-19T12:38:52.498Z,-2.30
2022-12-19T12:43:04.761Z,-2.23
2022-12-19T12:47:18.215Z,-2.16
2022-12-19T12:51:22.465Z,-2.24
2022-12-19T12:55:28.608Z,-2.22
2022-12-19T12:59:32.197Z,-2.15
2022-12-19T13:03:36.525Z,-2.09
2022-12-19T13:07:44.481Z,-2.01
2022-12-19T13:12:21.005Z,-1.84
2022-12-19T13:16:53.395Z,-1.84
2022-12-19T13:20:57.785Z,-1.99
2022-12-19T13:25:01.926Z,-2.06
2022-12-19T13:29:26.016Z,-2.17
2022-12-19T13:33:46.282Z,-2.16
2022-12-19T13:39:56.273Z,-2.18
2022-12-19T13:42:34.163Z,-2.07
2022-12-19T13:46:41.521Z,-1.94
2022-12-19T13:50:47.739Z,-1.92
2022-12-19T13:54:58.114Z,-1.89
2022-12-19T13:59:03.686Z,-1.94
2022-12-19T14:03:16.741Z,-1.96
2022-12-19T14:07:36.974Z,-1.93
2022-12-19T14:13:36.905Z,-1.94
2022-12-19T14:16:07.997Z,-1.95
2022-12-19T14:22:02.675Z,-1.92
2022-12-19T14:24:54.211Z,-1.96
2022-12-19T14:29:02.303Z,-1.99
2022-12-19T14:33:47.019Z,-2.01
2022-12-19T14:38:12.705Z,-2.08
2022-12-19T14:43:55.785Z,-2.10
2022-12-19T14:52:36.193Z,-2.09
2022-12-19T14:54:26.482Z,-2.12
2022-12-19T14:56:19.742Z,-2.15
2022-12-19T15:01:07.069Z,-2.12
2022-12-19T15:05:03.980Z,-2.10
2022-12-19T15:11:00.030Z,-2.12
2022-12-19T15:14:51.745Z,-2.26
2022-12-19T15:17:56.568Z,-2.34
2022-12-19T15:22:00.605Z,-2.40
2022-12-19T15:26:06.850Z,-2.43
2022-12-19T15:30:16.320Z,-2.49
2022-12-19T15:34:46.616Z,-2.49
2022-12-19T15:38:47.637Z,-2.45
2022-12-19T15:42:57.100Z,-2.56
2022-12-19T15:46:59.940Z,-2.60
2022-12-19T15:51:02.649Z,-2.55
2022-12-19T15:55:08.935Z,-2.56
2022-12-19T15:59:24.228Z,-2.43
2022-12-19T16:03:27.328Z,-2.53
2022-12-19T16:07:30.408Z,-2.24
2022-12-19T16:11:34.571Z,-2.09
2022-12-19T16:15:39.513Z,-2.12
2022-12-19T16:19:42.335Z,-2.29
2022-12-19T16:23:45.006Z,-2.41
2022-12-19T16:27:54.170Z,-2.52
2022-12-19T16:31:57.097Z,-2.51
2022-12-19T16:36:05.114Z,-2.53
2022-12-19T16:40:11.704Z,-2.54
2022-12-19T16:44:19.894Z,-2.54
2022-12-19T16:48:24.847Z,-2.52
2022-12-19T16:52:27.537Z,-2.50
2022-12-19T16:56:33.757Z,-2.52
2022-12-19T17:00:40.159Z,-2.53
2022-12-19T17:04:45.400Z,-2.54
2022-12-19T17:08:51.665Z,-2.52
2022-12-19T17:12:55.376Z,-2.54
2022-12-19T17:17:00.368Z,-2.58
2022-12-19T17:21:03.272Z,-2.62
2022-12-19T17:25:17.513Z,-2.66
2022-12-19T17:29:20.318Z,-2.67
2022-12-19T17:33:29.723Z,-2.66
2022-12-19T17:37:32.559Z,-2.68
2022-12-19T17:41:35.295Z,-2.72
2022-12-19T17:45:38.199Z,-2.73
2022-12-19T17:49:42.431Z,-2.72
2022-12-19T17:53:45.603Z,-2.73
2022-12-19T17:57:48.335Z,-2.69
2022-12-19T18:01:51.198Z,-2.70
2022-12-19T18:05:57.166Z,-2.66
2022-12-19T18:10:00.085Z,-2.68
2022-12-19T18:14:02.819Z,-2.68
2022-12-19T18:18:05.831Z,-2.74
2022-12-19T18:22:13.203Z,-2.74
2022-12-19T18:26:16.558Z,-2.76
2022-12-19T18:30:21.081Z,-2.73
2022-12-19T18:34:26.265Z,-2.78
2022-12-19T18:38:30.388Z,-2.74
2022-12-19T18:42:33.076Z,-2.73
2022-12-19T18:46:35.906Z,-2.71
2022-12-19T18:50:38.767Z,-2.74
2022-12-19T18:54:55.172Z,-2.80
2022-12-19T18:59:05.852Z,-2.87
2022-12-19T19:03:20.996Z,-2.89
2022-12-19T19:07:27.726Z,-2.89
2022-12-19T19:11:31.877Z,-2.88
2022-12-19T19:15:47.196Z,-2.89
2022-12-19T19:19:50.108Z,-2.91
2022-12-19T19:24:05.019Z,-2.93
2022-12-19T19:28:09.717Z,-2.92
2022-12-19T19:32:26.506Z,-2.92
2022-12-19T19:36:32.039Z,-3.04
2022-12-19T19:40:34.967Z,-3.02
2022-12-19T19:44:43.252Z,-3.10
2022-12-19T19:48:47.342Z,-3.13
2022-12-19T19:52:49.984Z,-3.19
2022-12-19T19:56:52.666Z,-3.20
2022-12-19T20:01:04.301Z,-3.19
2022-12-19T20:05:07.848Z,-3.19
2022-12-19T20:09:10.670Z,-3.22
2022-12-19T20:13:13.531Z,-3.19
2022-12-19T20:17:23.997Z,-3.24
2022-12-19T20:21:26.748Z,-3.24
2022-12-19T20:25:29.427Z,-3.23
2022-12-19T20:29:32.172Z,-3.22
2022-12-19T20:33:42.404Z,-3.21
2022-12-19T20:37:45.105Z,-3.20
2022-12-19T20:41:47.810Z,-3.21
2022-12-19T20:45:50.596Z,-3.26
2022-12-19T20:49:54.893Z,-3.26
2022-12-19T20:54:02.916Z,-3.24
2022-12-19T20:58:07.525Z,-3.24
2022-12-19T21:02:10.932Z,-3.23
2022-12-19T21:06:16.460Z,-3.30
2022-12-19T21:10:19.287Z,-3.29
2022-12-19T21:14:21.963Z,-3.31
2022-12-19T21:18:25.601Z,-3.30
2022-12-19T21:22:29.780Z,-3.35
2022-12-19T21:26:32.503Z,-3.27
2022-12-19T21:30:35.185Z,-3.24
2022-12-19T21:34:37.904Z,-3.26
2022-12-19T21:38:41.918Z,-3.25
2022-12-19T21:42:44.594Z,-3.20
2022-12-19T21:46:47.273Z,-3.24
2022-12-19T21:50:56.358Z,-3.27
2022-12-19T21:55:00.409Z,-3.21
2022-12-19T21:59:06.554Z,-3.30
2022-12-19T22:03:14.474Z,-3.32
2022-12-19T22:07:17.918Z,-3.38
2022-12-19T22:11:22.495Z,-3.35
2022-12-19T22:15:25.155Z,-3.32
2022-12-19T22:19:27.883Z,-3.31
2022-12-19T22:23:30.772Z,-3.32
2022-12-19T22:27:34.813Z,-3.32
2022-12-19T22:31:38.541Z,-3.34
2022-12-19T22:35:41.426Z,-3.39
2022-12-19T22:39:44.084Z,-3.47
2022-12-19T22:43:48.739Z,-3.45
2022-12-19T22:47:51.398Z,-3.40
2022-12-19T22:51:54.062Z,-3.38
2022-12-19T22:55:56.938Z,-3.34
2022-12-19T23:00:00.951Z,-3.30
2022-12-19T23:04:04.790Z,-3.29
2022-12-19T23:08:07.693Z,-3.30
2022-12-19T23:12:10.380Z,-3.34
2022-12-19T23:16:14.540Z,-3.27
2022-12-19T23:20:17.349Z,-3.30
2022-12-19T23:24:20.604Z,-3.29
2022-12-19T23:28:23.595Z,-3.29
2022-12-19T23:32:27.705Z,-3.27
2022-12-19T23:37:10.143Z,-3.28
2022-12-19T23:40:53.290Z,-3.23
2022-12-19T23:44:55.991Z,-3.21
2022-12-19T23:48:59.977Z,-3.26
2022-12-19T23:53:02.624Z,-3.28
2022-12-19T23:57:05.306Z,-3.26
